Time;durP1;ratioP1;P1;durP2;ratioP2;P2;SDS_P1;SDS_P2;PMS_P1;PMS_P2;Temp;Humidity;BMP_temperature;BMP_pressure;BME280_temperature;BME280_humidity;BME280_pressure;Samples;Min_cycle;Max_cycle;Signal;HPM_P1;HPM_P2
2021/12/05 00:22:03;;;;;;;6.40;3.77;;;;;;;4.13;86.27;99474.19;5113803;28;20539;-70
2021/12/05 00:24:36;;;;;;;3.63;3.57;;;;;;;4.14;85.95;99476.75;5114153;28;20178;-70
2021/12/05 00:27:11;;;;;;;7.73;4.40;;;;;;;4.24;85.50;99479.00;5113868;28;20213;-71
2021/12/05 00:29:47;;;;;;;10.60;4.27;;;;;;;4.14;85.65;99476.75;5096121;28;20579;-71
2021/12/05 00:32:23;;;;;;;4.30;3.90;;;;;;;3.99;86.46;99484.19;5113706;28;20191;-71
2021/12/05 01:16:56;;;;;;;6.83;3.00;;;;;;;3.31;88.03;99521.78;5117162;28;20691;-71
2021/12/05 01:19:25;;;;;;;12.13;3.87;;;;;;;3.35;88.06;99525.13;5098959;28;20245;-70
2021/12/05 01:21:56;;;;;;;9.17;3.60;;;;;;;3.31;88.29;99520.06;5098822;28;20200;-70
2021/12/05 01:27:01;;;;;;;12.93;3.90;;;;;;;3.42;88.16;99524.88;5099077;28;20306;-74
2021/12/05 01:29:45;;;;;;;3.50;3.30;;;;;;;3.37;88.38;99529.38;5098698;28;20204;-74
2021/12/05 01:37:58;;;;;;;5.37;3.80;;;;;;;3.58;87.86;99522.66;5117002;28;20567;-73
2021/12/05 01:51:02;;;;;;;5.97;3.47;;;;;;;3.85;87.18;99534.69;5117002;28;20193;-74
2021/12/05 01:53:53;;;;;;;3.40;3.20;;;;;;;3.94;87.09;99527.53;5098129;28;20277;-74
2021/12/05 02:16:16;;;;;;;11.27;3.90;;;;;;;4.07;85.94;99505.50;5097712;28;20187;-74
2021/12/05 02:35:01;;;;;;;14.03;3.13;;;;;;;4.08;85.18;99513.22;5098352;28;20195;-73
2021/12/05 02:38:05;;;;;;;2.93;2.60;;;;;;;3.98;85.17;99516.16;5115804;28;20228;-74
2021/12/05 02:40:50;;;;;;;9.40;2.77;;;;;;;4.00;85.04;99507.47;5097392;28;20200;-74
2021/12/05 02:43:39;;;;;;;3.70;3.17;;;;;;;4.00;85.04;99511.78;5098158;28;20195;-74
2021/12/05 02:46:07;;;;;;;10.77;3.00;;;;;;;4.05;84.98;99513.31;5097225;28;20644;-74
2021/12/05 02:48:37;;;;;;;2.83;2.63;;;;;;;4.04;84.92;99511.63;5115318;28;20231;-73
2021/12/05 02:51:18;;;;;;;5.37;3.37;;;;;;;4.06;85.04;99521.94;5098292;28;20187;-73
2021/12/05 02:53:49;;;;;;;4.83;2.63;;;;;;;3.95;85.29;99517.13;5097312;28;20192;-73
2021/12/05 02:56:17;;;;;;;3.90;1.80;;;;;;;3.95;85.36;99511.94;5097865;28;20183;-73
2021/12/05 02:58:51;;;;;;;6.23;3.00;;;;;;;3.95;85.23;99511.94;5115719;28;20171;-74
2021/12/05 03:01:36;;;;;;;10.20;2.63;;;;;;;3.98;85.19;99505.81;5097010;28;20287;-74
2021/12/05 03:04:05;;;;;;;5.60;3.30;;;;;;;3.94;85.37;99514.59;5098257;28;20181;-74
2021/12/05 03:06:33;;;;;;;5.70;3.10;;;;;;;3.81;85.60;99509.81;5096833;28;20201;-73
2021/12/05 03:09:14;;;;;;;11.80;3.30;;;;;;;3.87;85.59;99513.94;5096648;28;20215;-74
2021/12/05 03:11:43;;;;;;;4.03;3.13;;;;;;;3.90;85.39;99506.06;5096774;28;20184;-74
2021/12/05 03:14:11;;;;;;;4.50;3.10;;;;;;;3.88;85.32;99502.69;5115246;28;20565;-74
2021/12/05 03:16:40;;;;;;;7.00;2.73;;;;;;;3.82;85.47;99513.25;5114882;28;20563;-73
2021/12/05 03:19:11;;;;;;;3.23;2.87;;;;;;;3.75;85.57;99504.00;5096647;28;20225;-73
2021/12/05 03:21:40;;;;;;;2.87;2.67;;;;;;;3.83;85.68;99509.75;5114222;28;20719;-70
2021/12/05 03:24:09;;;;;;;10.33;3.40;;;;;;;3.79;85.56;99518.53;5096570;28;20236;-70
2021/12/05 03:26:38;;;;;;;3.57;2.87;;;;;;;3.76;85.48;99519.47;5096367;28;20749;-70
2021/12/05 03:29:08;;;;;;;3.73;3.23;;;;;;;3.77;85.43;99508.22;5096358;28;20212;-70
2021/12/05 03:31:37;;;;;;;6.43;2.77;;;;;;;3.80;85.15;99517.66;5096473;28;20227;-73
2021/12/05 03:34:07;;;;;;;11.63;2.97;;;;;;;3.77;85.62;99507.38;5097289;28;20586;-73
2021/12/05 03:36:36;;;;;;;6.73;3.30;;;;;;;3.75;85.76;99506.59;5097030;28;20225;-73
2021/12/05 03:39:06;;;;;;;5.60;3.13;;;;;;;3.90;85.34;99507.81;5097117;28;20223;-73
2021/12/05 03:41:34;;;;;;;3.90;2.60;;;;;;;3.83;85.31;99499.41;5096248;28;20221;-74
2021/12/05 03:44:05;;;;;;;3.07;2.57;;;;;;;3.88;85.03;99494.94;5079685;28;20193;-71
2021/12/05 03:46:33;;;;;;;6.60;3.30;;;;;;;3.81;85.31;99488.25;5096349;28;20205;-73
2021/12/05 03:49:04;;;;;;;12.27;2.67;;;;;;;3.85;85.43;99495.00;5096390;28;20210;-73
2021/12/05 03:51:33;;;;;;;6.70;2.97;;;;;;;3.83;85.56;99489.06;5096048;28;20179;-74
2021/12/05 03:54:02;;;;;;;9.77;2.93;;;;;;;3.74;85.57;99492.78;5095954;28;20180;-74
2021/12/05 03:56:29;;;;;;;6.80;3.30;;;;;;;3.73;85.53;99495.44;5095826;28;20195;-74
2021/12/05 03:58:57;;;;;;;2.40;2.30;;;;;;;3.77;85.13;99489.25;5096836;28;20180;-73
2021/12/05 04:01:25;;;;;;;4.00;3.70;;;;;;;3.77;85.28;99497.84;5114124;28;20206;-74
2021/12/05 04:03:53;;;;;;;3.70;2.43;;;;;;;3.79;84.94;99490.91;5114218;28;20192;-74
2021/12/05 04:06:25;;;;;;;2.40;2.30;;;;;;;3.83;84.67;99491.63;5096051;28;20599;-71
2021/12/05 04:08:55;;;;;;;6.83;3.27;;;;;;;3.72;85.34;99498.94;5096316;28;20290;-73
2021/12/05 04:11:34;;;;;;;3.70;2.87;;;;;;;3.79;85.15;99498.69;5096149;28;20179;-74
2021/12/05 04:14:08;;;;;;;8.90;3.70;;;;;;;3.76;85.07;99500.50;5095734;28;20228;-71
2021/12/05 04:16:36;;;;;;;2.80;2.60;;;;;;;3.76;85.24;99511.69;5096482;28;20212;-70
2021/12/05 04:19:05;;;;;;;6.87;2.70;;;;;;;3.71;85.22;99502.38;5095612;28;20197;-74
2021/12/05 04:21:37;;;;;;;5.10;2.70;;;;;;;3.81;84.99;99503.78;5095724;28;20211;-71
2021/12/05 04:24:09;;;;;;;3.00;2.80;;;;;;;3.77;84.78;99497.00;5096412;28;20185;-70
2021/12/05 04:26:37;;;;;;;7.07;2.63;;;;;;;3.81;84.93;99503.78;5095625;28;20207;-70
2021/12/05 04:29:07;;;;;;;6.97;3.47;;;;;;;3.79;84.88;99497.84;5095498;28;20208;-73
2021/12/05 04:31:35;;;;;;;3.67;2.60;;;;;;;3.89;84.48;99500.94;5095475;28;20287;-73
2021/12/05 04:34:03;;;;;;;3.43;2.87;;;;;;;3.78;84.71;99504.72;5095541;28;20664;-71
2021/12/05 04:36:31;;;;;;;3.07;2.80;;;;;;;3.80;84.50;99502.94;5095420;28;20202;-70
2021/12/05 04:39:04;;;;;;;2.67;2.57;;;;;;;3.77;84.76;99503.03;5095490;28;20661;-70
2021/12/05 04:41:30;;;;;;;5.67;3.10;;;;;;;3.81;84.73;99498.63;5113981;28;20687;-70
2021/12/05 04:44:00;;;;;;;14.97;3.43;;;;;;;3.83;84.09;99502.00;5095426;28;20196;-70
2021/12/05 04:46:29;;;;;;;3.30;3.03;;;;;;;3.77;84.37;99507.38;5095610;28;20288;-71
2021/12/05 04:48:57;;;;;;;5.23;2.60;;;;;;;3.71;84.28;99504.97;5095272;28;20203;-70
2021/12/05 04:51:30;;;;;;;6.90;3.07;;;;;;;3.64;84.95;99506.91;5095672;28;20200;-74
2021/12/05 04:53:57;;;;;;;3.07;2.97;;;;;;;3.63;84.84;99512.16;5096219;28;20192;-74
2021/12/05 04:56:26;;;;;;;3.93;3.17;;;;;;;3.62;84.66;99513.06;5095469;28;20556;-74
2021/12/05 04:58:55;;;;;;;4.10;3.37;;;;;;;3.55;84.82;99509.81;5095305;28;20192;-74
2021/12/05 05:01:26;;;;;;;10.40;2.50;;;;;;;3.44;85.68;99514.50;5095864;28;20191;-74
2021/12/05 05:03:54;;;;;;;9.10;3.43;;;;;;;3.52;85.21;99507.34;5113435;28;20720;-74
2021/12/05 05:06:25;;;;;;;11.57;3.03;;;;;;;3.65;84.81;99510.38;5113722;28;20180;-74
2021/12/05 05:08:54;;;;;;;3.97;2.90;;;;;;;3.71;84.69;99510.16;5113332;28;20768;-74
2021/12/05 05:11:23;;;;;;;3.60;2.10;;;;;;;3.61;84.73;99511.38;5113445;28;20180;-74
2021/12/05 05:13:50;;;;;;;8.00;2.77;;;;;;;3.57;84.99;99510.59;5113843;28;20180;-75
2021/12/05 05:16:20;;;;;;;2.83;2.30;;;;;;;3.62;84.51;99511.31;5113244;28;20185;-73
2021/12/05 05:21:34;;;;;;;3.23;2.90;;;;;;;3.59;84.78;99519.19;5113621;28;20199;-73
2021/12/05 05:43:34;;;;;;;3.97;3.67;;;;;;;3.64;84.32;99539.72;5113412;28;20187;-73
2021/12/05 05:46:11;;;;;;;3.83;3.47;;;;;;;3.67;84.19;99537.06;5100751;28;20178;-73
2021/12/05 05:48:43;;;;;;;3.30;2.47;;;;;;;3.64;84.52;99544.91;5116569;28;20208;-71
2021/12/05 05:51:11;;;;;;;10.77;3.23;;;;;;;3.67;84.48;99542.22;5116941;28;20177;-71
2021/12/05 05:53:37;;;;;;;4.27;2.77;;;;;;;3.64;84.42;99552.66;5116858;28;20192;-71
2021/12/05 05:56:06;;;;;;;6.97;2.00;;;;;;;3.70;84.49;99547.28;5116546;28;20198;-71
2021/12/05 05:58:43;;;;;;;5.30;2.80;;;;;;;3.59;84.59;99555.41;5116532;28;20210;-71
2021/12/05 06:03:56;;;;;;;3.57;2.73;;;;;;;3.71;83.61;99554.16;5117003;28;20510;-70
2021/12/05 06:06:22;;;;;;;2.97;1.90;;;;;;;3.74;83.44;99554.09;5116253;28;20207;-71
2021/12/05 06:08:49;;;;;;;3.60;2.53;;;;;;;3.80;82.87;99551.28;5116488;28;20202;-71
2021/12/05 06:11:17;;;;;;;5.73;2.57;;;;;;;3.78;82.67;99548.72;5116451;28;20187;-70
2021/12/05 06:13:45;;;;;;;3.43;2.17;;;;;;;3.81;82.67;99558.16;5116733;28;20187;-70
2021/12/05 06:16:14;;;;;;;3.23;2.60;;;;;;;3.90;82.48;99563.03;5116234;28;20192;-70
2021/12/05 06:18:40;;;;;;;2.20;2.10;;;;;;;3.84;82.60;99560.63;5116398;28;20183;-71
2021/12/05 06:21:08;;;;;;;8.60;2.37;;;;;;;3.80;82.64;99564.25;5115937;28;20211;-70
2021/12/05 06:23:36;;;;;;;4.50;2.23;;;;;;;3.77;82.87;99559.16;5116309;28;20545;-70
2021/12/05 06:26:04;;;;;;;6.10;2.50;;;;;;;3.83;82.71;99569.31;5115975;28;20678;-70
2021/12/05 06:28:42;;;;;;;7.17;1.97;;;;;;;3.69;83.07;99579.25;5097836;28;20226;-70
2021/12/05 06:31:23;;;;;;;1.90;1.90;;;;;;;3.80;82.66;99569.41;5116210;28;20188;-73
2021/12/05 06:36:57;;;;;;;2.57;2.27;;;;;;;3.84;82.44;99573.59;5115997;28;20209;-73
2021/12/05 06:47:27;;;;;;;2.87;2.67;;;;;;;3.78;82.43;99586.72;5116125;28;20226;-70
2021/12/05 06:49:55;;;;;;;2.23;2.23;;;;;;;3.76;82.45;99591.94;5116062;28;20196;-70
2021/12/05 06:52:40;;;;;;;4.80;3.47;;;;;;;3.91;82.16;99600.97;5097448;28;20206;-73
2021/12/05 06:55:06;;;;;;;7.63;2.30;;;;;;;3.80;82.65;99600.47;5115760;28;20185;-73
2021/12/05 06:57:33;;;;;;;3.00;2.33;;;;;;;3.80;82.32;99606.50;5115499;28;20228;-73
2021/12/05 07:00:00;;;;;;;4.00;2.33;;;;;;;3.73;82.27;99612.78;5115555;28;20181;-73
2021/12/05 07:02:27;;;;;;;2.40;2.20;;;;;;;3.80;82.07;99618.59;5115268;28;20191;-71
2021/12/05 07:07:34;;;;;;;2.30;2.30;;;;;;;3.74;82.46;99616.19;5096903;28;20297;-74
2021/12/05 07:10:02;;;;;;;4.30;2.50;;;;;;;3.76;82.29;99620.44;5114981;28;20207;-74
2021/12/05 07:13:05;;;;;;;4.27;1.93;;;;;;;3.73;82.27;99612.78;5115490;28;20198;-74
2021/12/05 07:20:51;;;;;;;2.77;2.20;;;;;;;3.76;82.15;99617.00;5114927;28;20285;-70
2021/12/05 07:23:39;;;;;;;5.07;2.33;;;;;;;3.82;81.68;99619.41;5114855;28;20181;-70
2021/12/05 07:42:42;;;;;;;2.57;2.40;;;;;;;3.90;81.15;99637.28;5096539;28;20187;-70
2021/12/05 07:45:13;;;;;;;2.47;2.27;;;;;;;3.83;81.14;99637.47;5114715;28;20710;-70
2021/12/05 07:47:44;;;;;;;2.10;1.77;;;;;;;3.94;80.95;99634.56;5114351;28;20212;-73
2021/12/05 07:50:12;;;;;;;2.53;2.33;;;;;;;4.02;80.34;99637.75;5114342;28;20256;-71
2021/12/05 07:52:42;;;;;;;2.30;2.20;;;;;;;4.01;80.63;99640.38;5114282;28;20193;-70
2021/12/05 07:55:30;;;;;;;2.70;2.60;;;;;;;4.12;79.53;99638.28;5114731;28;20630;-70
2021/12/05 07:58:09;;;;;;;2.87;2.73;;;;;;;4.08;80.18;99640.13;5114423;28;20204;-71
2021/12/05 08:14:53;;;;;;;2.33;2.20;;;;;;;4.12;79.27;99649.50;5114306;28;20172;-70
2021/12/05 08:17:15;;;;;;;2.80;2.60;;;;;;;4.19;79.10;99654.47;5111013;28;20220;-70
2021/12/05 08:19:41;;;;;;;4.47;2.27;;;;;;;4.22;78.87;99660.41;5114650;28;20524;-70
2021/12/05 08:22:08;;;;;;;2.40;2.23;;;;;;;4.11;79.31;99662.50;5114210;28;20561;-70
2021/12/05 08:24:38;;;;;;;2.10;2.00;;;;;;;4.19;79.47;99654.47;5113939;28;20582;-70
2021/12/05 08:27:07;;;;;;;2.20;2.20;;;;;;;4.21;79.28;99663.03;5113981;28;20215;-71
2021/12/05 08:29:44;;;;;;;2.83;2.73;;;;;;;4.21;79.50;99663.88;5114246;28;20552;-71
2021/12/05 08:34:55;;;;;;;2.67;2.20;;;;;;;4.12;79.47;99659.84;5114041;28;20270;-70
2021/12/05 09:51:21;;;;;;;4.20;2.97;;;;;;;4.09;83.58;99773.09;5116862;28;20196;-74
2021/12/05 10:02:33;;;;;;;2.80;2.63;;;;;;;4.16;83.60;99779.78;5117076;28;20306;-70
2021/12/05 10:13:05;;;;;;;3.20;3.20;;;;;;;4.16;84.34;99787.53;5116230;28;20185;-73
2021/12/05 10:35:35;;;;;;;3.40;3.13;;;;;;;4.33;84.59;99820.72;5115813;28;20195;-73
2021/12/05 10:38:08;;;;;;;3.20;3.10;;;;;;;4.32;84.63;99824.19;5116235;28;20209;-73
2021/12/05 10:40:43;;;;;;;3.00;2.80;;;;;;;4.34;85.36;99832.75;5116323;28;20169;-73
2021/12/05 10:43:18;;;;;;;3.23;2.83;;;;;;;4.38;85.45;99831.78;5115936;28;20195;-73
2021/12/05 10:45:51;;;;;;;3.20;3.03;;;;;;;4.48;84.87;99828.00;5115644;28;20184;-73
2021/12/05 10:48:25;;;;;;;2.60;2.60;;;;;;;4.37;84.91;99827.50;5115808;28;20216;-73
2021/12/05 10:50:59;;;;;;;2.83;2.83;;;;;;;4.37;85.00;99827.50;5115758;28;20247;-73
2021/12/05 10:53:57;;;;;;;3.43;3.23;;;;;;;4.38;85.85;99826.59;5116045;28;20188;-71
2021/12/05 10:56:35;;;;;;;4.37;2.83;;;;;;;4.46;86.01;99832.41;5115907;28;20188;-71
2021/12/05 10:59:20;;;;;;;2.93;2.83;;;;;;;4.60;85.72;99830.22;5115700;28;20169;-71
2021/12/05 11:01:49;;;;;;;2.70;2.47;;;;;;;4.66;85.58;99832.63;5115564;28;20637;-71
2021/12/05 11:04:25;;;;;;;3.13;2.67;;;;;;;4.75;85.60;99830.66;5115761;28;20185;-73
2021/12/05 11:06:53;;;;;;;3.00;2.80;;;;;;;4.83;84.98;99823.47;5115398;28;20551;-73
2021/12/05 11:09:33;;;;;;;4.03;2.93;;;;;;;5.06;84.77;99828.75;5115140;28;20196;-74
2021/12/05 11:12:15;;;;;;;2.97;2.97;;;;;;;4.97;83.57;99832.50;5115367;28;20600;-70
2021/12/05 11:14:43;;;;;;;3.07;3.00;;;;;;;5.05;82.07;99828.81;5115576;28;20173;-70
2021/12/05 11:17:13;;;;;;;2.37;2.37;;;;;;;5.04;81.60;99830.56;5114944;28;20694;-73
2021/12/05 11:19:51;;;;;;;2.70;2.70;;;;;;;5.12;81.55;99825.94;5115180;28;20534;-73
2021/12/05 11:22:22;;;;;;;2.63;2.63;;;;;;;5.14;82.66;99828.47;5115144;28;20619;-73
2021/12/05 11:24:51;;;;;;;3.17;3.07;;;;;;;5.18;81.24;99830.94;5115290;28;20185;-73
2021/12/05 11:27:47;;;;;;;2.70;2.70;;;;;;;5.25;82.40;99826.41;5115387;28;20205;-71
2021/12/05 11:30:25;;;;;;;2.53;2.43;;;;;;;5.39;81.71;99825.94;5115665;28;20189;-70
2021/12/05 11:33:07;;;;;;;2.37;2.30;;;;;;;5.46;81.92;99830.00;5114666;28;20172;-70
2021/12/05 11:35:44;;;;;;;2.73;2.57;;;;;;;5.46;80.83;99830.00;5115175;28;20533;-70
2021/12/05 11:38:25;;;;;;;2.33;2.33;;;;;;;5.60;80.71;99837.31;5114660;28;20647;-73
2021/12/05 11:41:10;;;;;;;2.80;2.70;;;;;;;5.57;81.01;99833.06;5115144;28;20525;-74
2021/12/05 11:43:40;;;;;;;2.17;2.13;;;;;;;5.70;80.02;99834.31;5114284;28;20181;-74
2021/12/05 11:46:08;;;;;;;9.20;3.20;;;;;;;5.82;80.49;99837.41;5114656;28;20192;-74
2021/12/05 11:48:38;;;;;;;2.43;2.43;;;;;;;5.80;78.74;99843.50;5115113;28;20205;-74
2021/12/05 11:51:28;;;;;;;2.47;2.43;;;;;;;5.87;79.02;99835.50;5096203;28;20232;-74
2021/12/05 11:53:59;;;;;;;6.20;2.90;;;;;;;6.01;78.32;99839.31;5114917;28;20182;-74
2021/12/05 11:56:32;;;;;;;2.93;2.93;;;;;;;5.84;78.49;99840.78;5114480;28;20181;-73
2021/12/05 11:59:09;;;;;;;2.70;2.60;;;;;;;5.71;78.29;99838.59;5114708;28;20540;-73
2021/12/05 12:01:42;;;;;;;3.40;3.10;;;;;;;5.71;79.11;99846.41;5114392;28;20176;-71
2021/12/05 12:04:11;;;;;;;2.90;2.90;;;;;;;5.76;79.69;99847.09;5114458;28;20177;-71
2021/12/05 12:06:39;;;;;;;3.33;3.13;;;;;;;5.75;79.39;99849.75;5114039;28;20227;-74
2021/12/05 12:09:12;;;;;;;3.17;3.07;;;;;;;5.82;79.10;99853.81;5114328;28;20544;-74
2021/12/05 12:11:39;;;;;;;4.00;3.90;;;;;;;5.79;78.29;99852.19;5113929;28;20212;-71
2021/12/05 12:14:05;;;;;;;3.67;3.57;;;;;;;5.72;77.90;99860.25;5114472;28;20208;-70
2021/12/05 12:16:33;;;;;;;3.50;3.40;;;;;;;5.69;77.60;99855.16;5096295;28;20189;-71
2021/12/05 12:19:03;;;;;;;2.90;2.80;;;;;;;5.75;77.76;99862.75;5114040;28;20192;-70
2021/12/05 12:21:38;;;;;;;4.83;2.63;;;;;;;5.69;77.78;99858.59;5114086;28;20186;-73
2021/12/05 12:24:10;;;;;;;2.87;2.87;;;;;;;5.71;76.93;99856.78;5114427;28;20173;-73
2021/12/05 12:26:38;;;;;;;2.27;2.27;;;;;;;5.76;77.51;99860.09;5113945;28;20197;-73
2021/12/05 12:29:05;;;;;;;2.27;2.27;;;;;;;5.74;77.49;99861.91;5113762;28;20193;-73
2021/12/05 12:31:36;;;;;;;2.30;2.30;;;;;;;5.87;77.77;99859.72;5114234;28;20685;-73
2021/12/05 12:34:09;;;;;;;2.90;2.70;;;;;;;5.91;77.25;99857.88;5114024;28;20207;-70
2021/12/05 12:36:35;;;;;;;3.17;3.10;;;;;;;5.83;75.86;99862.47;5113858;28;20634;-71
2021/12/05 12:39:27;;;;;;;3.20;2.93;;;;;;;5.77;76.78;99859.16;5113640;28;20185;-73
2021/12/05 12:42:01;;;;;;;6.43;2.87;;;;;;;5.74;76.71;99867.09;5113741;28;20201;-73
2021/12/05 12:44:28;;;;;;;2.70;2.70;;;;;;;5.84;76.88;99862.41;5113681;28;20177;-71
2021/12/05 12:47:00;;;;;;;2.17;2.17;;;;;;;5.85;77.05;99871.03;5113985;28;20212;-70
2021/12/05 12:49:31;;;;;;;2.30;2.20;;;;;;;5.70;77.19;99881.06;5113815;28;20177;-74
2021/12/05 12:52:07;;;;;;;2.40;2.20;;;;;;;5.61;76.64;99877.94;5095685;28;20562;-74
2021/12/05 12:54:44;;;;;;;2.40;2.30;;;;;;;5.63;76.45;99879.59;5115482;28;20614;-71
2021/12/05 12:57:16;;;;;;;1.60;1.60;;;;;;;5.66;76.50;99883.84;5117624;28;20204;-71
2021/12/05 12:59:53;;;;;;;2.90;2.60;;;;;;;5.50;77.42;99888.69;5117955;28;20177;-70
2021/12/05 13:02:59;;;;;;;2.40;2.40;;;;;;;5.59;78.04;99888.41;5117961;28;20172;-70
2021/12/05 13:07:22;;;;;;;2.53;2.43;;;;;;;5.69;76.86;99883.72;5116032;28;20201;-70
2021/12/05 13:11:50;;;;;;;2.67;2.57;;;;;;;5.79;76.54;99887.72;5117369;28;20701;-70
2021/12/05 13:14:18;;;;;;;2.20;1.83;;;;;;;5.83;77.33;99894.47;5117444;28;20165;-70
2021/12/05 13:16:48;;;;;;;2.37;2.37;;;;;;;5.76;76.43;99899.03;5117852;28;20616;-70
2021/12/05 13:19:22;;;;;;;2.27;2.10;;;;;;;5.76;75.95;99898.19;5117560;28;20318;-70
2021/12/05 13:22:02;;;;;;;2.23;2.23;;;;;;;5.68;76.30;99902.81;5117198;28;20181;-70
2021/12/05 13:24:34;;;;;;;2.73;2.73;;;;;;;5.77;76.99;99898.13;5117520;28;20184;-70
2021/12/05 13:27:04;;;;;;;2.07;2.07;;;;;;;5.87;76.60;99898.69;5117941;28;20562;-71
2021/12/05 13:29:37;;;;;;;2.77;2.77;;;;;;;5.89;76.10;99903.81;5117212;28;20265;-70
2021/12/05 13:32:08;;;;;;;4.57;2.90;;;;;;;5.83;76.32;99904.88;5117399;28;20202;-73
2021/12/05 13:34:44;;;;;;;2.80;2.80;;;;;;;5.85;76.14;99904.81;5117573;28;20177;-71
2021/12/05 13:37:13;;;;;;;3.37;2.97;;;;;;;5.78;76.84;99905.03;5117296;28;20220;-73
2021/12/05 13:39:45;;;;;;;2.20;2.20;;;;;;;5.88;77.19;99910.75;5116888;28;20204;-71
2021/12/05 13:42:26;;;;;;;2.07;2.07;;;;;;;6.04;76.67;99911.09;5117418;28;20634;-73
2021/12/05 13:45:26;;;;;;;2.27;2.17;;;;;;;6.01;75.45;99912.06;5117096;28;20623;-70
2021/12/05 13:47:56;;;;;;;3.47;3.37;;;;;;;6.05;76.25;99915.38;5116644;28;20197;-70
2021/12/05 13:50:25;;;;;;;3.50;3.37;;;;;;;6.00;75.30;99914.69;5116647;28;20654;-70
2021/12/05 13:53:03;;;;;;;4.17;4.07;;;;;;;6.13;74.85;99917.72;5117200;28;20181;-74
2021/12/05 13:56:07;;;;;;;3.13;3.13;;;;;;;6.16;75.87;99917.63;5117312;28;20177;-75
2021/12/05 14:01:03;;;;;;;2.67;2.57;;;;;;;6.17;75.17;99933.16;5097676;28;20204;-70
2021/12/05 14:03:37;;;;;;;2.73;2.67;;;;;;;6.24;74.39;99929.44;5098184;28;20189;-70
2021/12/05 14:06:28;;;;;;;2.37;2.20;;;;;;;6.16;75.12;99934.06;5116074;28;20166;-75
2021/12/05 14:09:03;;;;;;;3.27;3.07;;;;;;;6.19;74.58;99940.88;5117202;28;20553;-74
2021/12/05 14:11:30;;;;;;;4.13;4.00;;;;;;;6.08;75.78;99943.88;5099007;28;20185;-75
2021/12/05 14:13:56;;;;;;;5.60;3.27;;;;;;;6.06;75.77;99949.09;5116246;28;20206;-71
2021/12/05 14:16:32;;;;;;;4.13;4.00;;;;;;;6.10;76.05;99960.25;5116132;28;20181;-73
2021/12/05 14:18:59;;;;;;;3.10;3.00;;;;;;;6.01;74.88;99958.84;5097853;28;20607;-73
2021/12/05 14:21:26;;;;;;;2.77;2.67;;;;;;;6.06;74.43;99967.28;5116398;28;20189;-71
2021/12/05 14:23:57;;;;;;;6.70;2.60;;;;;;;6.02;74.94;99970.06;5115970;28;20707;-71
2021/12/05 14:26:26;;;;;;;2.40;2.40;;;;;;;6.01;75.14;99974.44;5115936;28;20181;-71
2021/12/05 14:29:02;;;;;;;3.20;3.20;;;;;;;6.01;75.61;99979.63;5097774;28;20185;-74
2021/12/05 14:31:33;;;;;;;2.97;2.97;;;;;;;5.95;75.50;99981.56;5098380;28;20195;-74
2021/12/05 14:34:00;;;;;;;4.23;3.00;;;;;;;5.93;74.28;99985.97;5116458;28;20296;-74
2021/12/05 14:36:30;;;;;;;2.70;2.67;;;;;;;5.87;74.79;99986.16;5115709;28;20711;-74
2021/12/05 14:39:19;;;;;;;2.93;2.70;;;;;;;5.85;75.21;99985.34;5116009;28;20676;-74
2021/12/05 14:41:49;;;;;;;2.40;2.40;;;;;;;5.93;75.10;99996.34;5115828;28;20170;-74
2021/12/05 14:44:18;;;;;;;3.57;3.47;;;;;;;5.83;75.26;99994.94;5115540;28;20255;-74
2021/12/05 14:47:16;;;;;;;4.00;3.60;;;;;;;5.84;75.65;100004.44;5116026;28;20291;-74
2021/12/05 14:49:51;;;;;;;3.67;3.57;;;;;;;5.72;75.82;100009.16;5108737;28;20290;-74
2021/12/05 14:52:32;;;;;;;3.70;3.37;;;;;;;5.72;75.99;100016.09;5115705;28;20199;-74
2021/12/05 14:55:01;;;;;;;2.97;2.97;;;;;;;5.71;76.04;100022.16;5097273;28;20181;-74
2021/12/05 14:57:31;;;;;;;3.70;3.60;;;;;;;5.74;76.03;100030.72;5115582;28;20211;-74
2021/12/05 15:00:08;;;;;;;2.77;2.57;;;;;;;5.66;75.53;100030.13;5115737;28;20226;-73
2021/12/05 15:02:35;;;;;;;2.67;2.57;;;;;;;5.56;75.84;100035.63;5115312;28;20183;-74
2021/12/05 15:05:03;;;;;;;2.93;2.93;;;;;;;5.56;76.03;100039.09;5115500;28;20170;-74
2021/12/05 15:07:30;;;;;;;2.50;2.50;;;;;;;5.50;76.43;100039.28;5115243;28;20300;-73
2021/12/05 15:09:58;;;;;;;2.03;2.03;;;;;;;5.53;76.33;100040.03;5115693;28;20183;-75
2021/12/05 15:12:28;;;;;;;2.07;2.07;;;;;;;5.48;76.51;100041.06;5115043;28;20200;-74
2021/12/05 15:14:57;;;;;;;2.13;2.13;;;;;;;5.48;76.63;100054.91;5115656;28;20170;-70
2021/12/05 15:17:35;;;;;;;1.83;1.83;;;;;;;5.41;76.54;100055.16;5115164;28;20581;-70
2021/12/05 15:20:11;;;;;;;2.47;1.90;;;;;;;5.33;76.63;100057.97;5115328;28;20178;-71
2021/12/05 15:22:50;;;;;;;2.33;2.23;;;;;;;5.30;76.84;100071.06;5115194;28;20646;-73
2021/12/05 15:25:21;;;;;;;3.17;2.97;;;;;;;5.22;76.98;100070.44;5115139;28;20161;-73
2021/12/05 15:27:48;;;;;;;3.00;2.83;;;;;;;5.23;77.32;100078.19;5115025;28;20251;-73
2021/12/05 15:30:24;;;;;;;2.67;2.67;;;;;;;5.22;77.32;100071.28;5114829;28;20181;-70
2021/12/05 15:33:02;;;;;;;3.20;3.20;;;;;;;5.21;77.27;100073.91;5115160;28;20221;-70
2021/12/05 15:35:30;;;;;;;2.27;2.27;;;;;;;5.18;76.92;100080.06;5114899;28;20177;-70
2021/12/05 15:38:05;;;;;;;2.87;2.70;;;;;;;5.19;76.51;100083.50;5114840;28;20254;-73
2021/12/05 15:40:35;;;;;;;8.13;3.30;;;;;;;5.17;76.89;100090.47;5114798;28;20168;-73
2021/12/05 15:43:11;;;;;;;2.47;2.40;;;;;;;5.09;77.38;100089.84;5114659;28;20178;-73
2021/12/05 15:45:41;;;;;;;2.47;2.37;;;;;;;5.12;77.23;100095.78;5114862;28;20188;-73
2021/12/05 15:48:08;;;;;;;2.60;2.40;;;;;;;5.21;77.28;100105.94;5114700;28;20214;-73
2021/12/05 15:50:38;;;;;;;2.77;2.47;;;;;;;5.17;77.27;100104.31;5096051;28;20563;-73
2021/12/05 15:53:10;;;;;;;1.90;1.90;;;;;;;5.27;77.00;100107.47;5114864;28;20196;-73
2021/12/05 15:55:45;;;;;;;2.87;2.87;;;;;;;5.31;77.11;100116.03;5096723;28;20173;-75
2021/12/05 15:58:30;;;;;;;2.10;2.10;;;;;;;5.21;77.77;100116.31;5095902;28;20251;-74
2021/12/05 16:01:12;;;;;;;3.00;3.00;;;;;;;5.20;78.11;100111.97;5114257;28;20551;-70
2021/12/05 16:03:42;;;;;;;2.70;2.70;;;;;;;5.23;77.73;100130.09;5096316;28;20203;-70
2021/12/05 16:06:10;;;;;;;3.10;3.10;;;;;;;5.13;78.48;100130.38;5114741;28;20189;-73
2021/12/05 16:08:37;;;;;;;3.13;3.03;;;;;;;5.07;79.08;100136.63;5114346;28;20278;-70
2021/12/05 16:11:11;;;;;;;3.37;3.07;;;;;;;5.03;79.27;100137.56;5114280;28;20180;-70
2021/12/05 16:13:41;;;;;;;3.30;3.20;;;;;;;5.00;79.66;100142.88;5095766;28;20180;-75
2021/12/05 16:16:14;;;;;;;2.50;2.50;;;;;;;4.98;80.02;100149.81;5114336;28;20173;-74
2021/12/05 16:18:49;;;;;;;3.40;3.30;;;;;;;5.02;80.11;100146.25;5114431;28;20720;-70
2021/12/05 16:21:28;;;;;;;2.73;2.73;;;;;;;4.93;80.52;100152.56;5113999;28;20211;-70
2021/12/05 16:23:57;;;;;;;3.40;3.30;;;;;;;4.96;80.33;100162.00;5114219;28;20181;-70
2021/12/05 16:26:28;;;;;;;4.13;3.63;;;;;;;5.01;80.39;100160.13;5114605;28;20625;-70
2021/12/05 16:29:01;;;;;;;3.80;3.53;;;;;;;5.02;80.23;100176.53;5113662;28;20181;-70
2021/12/05 16:31:34;;;;;;;3.23;3.13;;;;;;;4.99;80.38;100177.44;5113646;28;20232;-70
2021/12/05 16:34:03;;;;;;;3.73;3.57;;;;;;;5.07;80.75;100185.03;5114326;28;20231;-70
2021/12/05 16:36:40;;;;;;;3.90;3.80;;;;;;;4.97;80.85;100181.84;5095604;28;20177;-71
2021/12/05 16:39:16;;;;;;;5.20;5.00;;;;;;;5.05;81.89;100186.81;5113966;28;20177;-70
2021/12/05 16:41:52;;;;;;;5.87;5.67;;;;;;;4.96;82.82;100198.31;5113653;28;20173;-71
2021/12/05 16:44:22;;;;;;;5.60;5.37;;;;;;;4.89;83.42;100210.59;5095497;28;20181;-70
2021/12/05 16:47:01;;;;;;;6.87;4.97;;;;;;;4.76;84.31;100205.75;5114190;28;20201;-70
2021/12/05 16:49:39;;;;;;;6.03;5.83;;;;;;;4.81;84.47;100206.50;5113894;28;20542;-70
2021/12/05 16:52:09;;;;;;;5.93;5.67;;;;;;;4.70;84.63;100211.94;5114100;28;20200;-70
2021/12/05 16:54:46;;;;;;;5.50;5.10;;;;;;;4.58;85.55;100217.44;5114142;28;20526;-70
2021/12/05 16:57:18;;;;;;;5.80;5.40;;;;;;;4.58;85.57;100218.31;5114232;28;20205;-70
2021/12/05 16:59:51;;;;;;;4.97;4.80;;;;;;;4.59;85.65;100214.81;5113898;28;20178;-70
2021/12/05 17:02:32;;;;;;;5.93;5.63;;;;;;;4.56;85.80;100227.00;5113899;28;20509;-70
2021/12/05 17:05:05;;;;;;;6.17;5.80;;;;;;;4.49;86.36;100222.84;5095901;28;20275;-70
2021/12/05 17:07:37;;;;;;;5.77;5.47;;;;;;;4.41;86.75;100230.81;5113459;28;20240;-70
2021/12/05 17:10:08;;;;;;;5.80;5.60;;;;;;;4.41;86.70;100236.84;5113547;28;20173;-70
2021/12/05 17:12:36;;;;;;;6.33;6.03;;;;;;;4.39;87.10;100237.78;5113781;28;20280;-73
2021/12/05 17:15:19;;;;;;;5.53;5.23;;;;;;;4.41;86.95;100243.75;5113616;28;20199;-70
2021/12/05 17:17:50;;;;;;;6.17;5.77;;;;;;;4.43;87.12;100239.41;5113278;28;20201;-70